createdAt,value
2019-02-19T00:00:26.097Z,69.02
2019-02-19T00:02:19.122Z,69.02
2019-02-19T00:03:19.135Z,67.98
2019-02-19T00:05:12.113Z,68.93
2019-02-19T00:06:12.170Z,69.02
2019-02-19T00:08:05.200Z,69.02
2019-02-19T00:09:05.206Z,68.84
2019-02-19T00:10:58.185Z,68.36
2019-02-19T00:11:58.240Z,68.27
2019-02-19T00:13:51.223Z,69.31
2019-02-19T00:14:51.274Z,68.74
2019-02-19T00:16:44.252Z,69.31
2019-02-19T00:17:44.309Z,68.36
2019-02-19T00:19:37.304Z,68.65
2019-02-19T00:20:37.343Z,69.12
2019-02-19T00:22:30.331Z,68.93
2019-02-19T00:23:30.391Z,69.02
2019-02-19T00:25:23.361Z,67.98
2019-02-19T00:26:23.422Z,68.55
2019-02-19T00:28:16.406Z,69.69
2019-02-19T00:29:16.460Z,68.93
2019-02-19T00:31:09.445Z,68.36
2019-02-19T00:32:09.500Z,68.46
2019-02-19T00:34:02.502Z,68.17
2019-02-19T00:35:02.540Z,67.41
2019-02-19T00:36:55.519Z,67.13
2019-02-19T00:37:55.571Z,67.13
2019-02-19T00:39:48.569Z,67.79
2019-02-19T00:40:48.607Z,67.32
2019-02-19T00:42:41.596Z,66.36
2019-02-19T00:43:41.646Z,66.55
2019-02-19T00:45:34.625Z,65.70
2019-02-19T00:46:34.680Z,65.70
2019-02-19T00:48:27.668Z,65.99
2019-02-19T00:49:27.720Z,64.75
2019-02-19T00:51:20.704Z,65.32
2019-02-19T00:52:20.758Z,65.32
2019-02-19T00:54:14.246Z,65.32
2019-02-19T00:55:14.306Z,65.51
2019-02-19T00:57:07.269Z,64.18
2019-02-19T00:58:07.326Z,64.27
2019-02-19T01:00:00.314Z,63.42
2019-02-19T01:01:00.358Z,63.51
2019-02-19T01:02:53.348Z,64.08
2019-02-19T01:03:53.391Z,63.99
2019-02-19T01:05:46.370Z,64.08
2019-02-19T01:06:46.427Z,64.18
2019-02-19T01:08:39.416Z,64.46
2019-02-19T01:09:39.462Z,64.18
2019-02-19T01:11:32.439Z,65.51
2019-02-19T01:12:32.496Z,65.13
2019-02-19T01:14:25.485Z,65.22
2019-02-19T01:15:25.864Z,65.22
2019-02-19T01:17:18.520Z,65.41
2019-02-19T01:18:18.575Z,64.94
2019-02-19T01:20:11.563Z,65.13
2019-02-19T01:21:11.613Z,64.94
2019-02-19T01:23:05.092Z,64.08
2019-02-19T01:24:05.152Z,64.18
2019-02-19T01:25:58.155Z,64.08
2019-02-19T01:26:58.182Z,63.99
2019-02-19T01:28:51.166Z,64.37
2019-02-19T01:29:51.216Z,65.22
2019-02-19T01:31:44.193Z,64.84
2019-02-19T01:32:44.249Z,63.99
2019-02-19T01:34:37.235Z,63.32
2019-02-19T01:35:37.282Z,63.60
2019-02-19T01:37:30.280Z,62.65
2019-02-19T01:38:30.342Z,62.94
2019-02-19T01:40:23.834Z,62.85
2019-02-19T01:41:23.883Z,63.60
2019-02-19T01:43:16.863Z,63.13
2019-02-19T01:44:16.919Z,63.42
2019-02-19T01:46:09.907Z,62.85
2019-02-19T01:47:09.955Z,62.75
2019-02-19T01:49:02.935Z,62.37
2019-02-19T01:50:02.983Z,61.99
2019-02-19T01:51:55.964Z,61.61
2019-02-19T01:52:56.018Z,62.27
2019-02-19T01:54:49.005Z,61.52
2019-02-19T01:55:49.053Z,61.99
2019-02-19T01:57:42.042Z,61.52
2019-02-19T01:58:42.109Z,62.08
2019-02-19T02:00:35.085Z,62.75
2019-02-19T02:01:35.134Z,62.37
2019-02-19T02:03:28.109Z,62.40
2019-02-19T02:04:28.165Z,61.83
2019-02-19T02:06:21.155Z,61.83
2019-02-19T02:07:21.202Z,61.23
2019-02-19T02:09:14.186Z,60.75
2019-02-19T02:10:14.232Z,59.80
2019-02-19T02:12:07.259Z,59.23
2019-02-19T02:13:07.312Z,59.05
2019-02-19T02:15:00.295Z,58.47
2019-02-19T02:16:00.348Z,58.88
2019-02-19T02:17:53.325Z,57.93
2019-02-19T02:18:53.380Z,57.36
2019-02-19T02:20:46.351Z,57.65
2019-02-19T02:21:46.416Z,58.22
2019-02-19T02:23:39.400Z,56.12
2019-02-19T02:24:39.440Z,55.65
2019-02-19T02:26:32.423Z,54.22
2019-02-19T02:27:32.478Z,54.22
2019-02-19T02:29:25.472Z,53.36
2019-02-19T02:30:25.508Z,51.75
2019-02-19T02:32:18.489Z,51.08
2019-02-19T02:33:18.541Z,49.18
2019-02-19T02:35:11.535Z,48.61
2019-02-19T02:36:11.575Z,48.80
2019-02-19T02:38:04.557Z,46.80
2019-02-19T02:39:04.613Z,46.23
2019-02-19T02:40:58.107Z,44.61
2019-02-19T02:41:58.156Z,43.28
2019-02-19T02:43:51.137Z,43.19
2019-02-19T02:44:51.190Z,41.76
2019-02-19T02:46:44.180Z,40.71
2019-02-19T02:47:44.230Z,39.86
2019-02-19T02:49:37.204Z,38.90
2019-02-19T02:50:37.260Z,38.62
2019-02-19T02:52:30.246Z,37.38
2019-02-19T02:53:30.293Z,36.62
2019-02-19T02:55:23.280Z,35.19
2019-02-19T02:56:23.327Z,34.81
2019-02-19T02:58:16.319Z,34.05
2019-02-19T02:59:16.368Z,33.86
2019-02-19T03:01:09.359Z,33.39
2019-02-19T03:02:09.410Z,32.34
2019-02-19T03:04:02.406Z,31.68
2019-02-19T03:05:02.464Z,31.48
2019-02-19T03:06:55.454Z,30.54
2019-02-19T03:07:55.506Z,31.01
2019-02-19T03:09:48.501Z,30.44
2019-02-19T03:10:48.541Z,29.39
2019-02-19T03:12:41.552Z,29.20
2019-02-19T03:13:41.579Z,29.00
2019-02-19T03:15:34.565Z,28.34
2019-02-19T03:16:34.633Z,27.87
2019-02-19T03:18:27.591Z,27.09
2019-02-19T03:19:27.647Z,27.28
2019-02-19T03:21:20.637Z,27.97
2019-02-19T03:22:20.682Z,27.20
2019-02-19T03:24:13.663Z,26.73
2019-02-19T03:25:13.720Z,26.90
2019-02-19T03:27:06.705Z,26.62
2019-02-19T03:28:06.755Z,26.16
2019-02-19T03:29:59.731Z,25.57
2019-02-19T03:30:59.824Z,25.40
2019-02-19T03:32:52.777Z,25.67
2019-02-19T03:33:52.838Z,25.57
2019-02-19T03:35:45.806Z,25.30
2019-02-19T03:36:45.856Z,25.11
2019-02-19T03:38:38.835Z,24.91
2019-02-19T03:39:38.897Z,24.62
2019-02-19T03:41:31.874Z,23.96
2019-02-19T03:42:31.925Z,23.97
2019-02-19T03:44:24.916Z,23.29
2019-02-19T03:45:24.966Z,21.86
2019-02-19T03:47:17.955Z,21.48
2019-02-19T03:48:18.016Z,21.01
2019-02-19T03:50:11.004Z,20.06
2019-02-19T03:51:11.062Z,19.78
2019-02-19T03:53:04.052Z,19.96
2019-02-19T03:54:04.098Z,19.59
2019-02-19T03:55:57.083Z,19.20
2019-02-19T03:56:57.134Z,19.78
2019-02-19T03:58:50.113Z,19.30
2019-02-19T03:59:50.187Z,19.39
2019-02-19T04:01:43.162Z,19.01
2019-02-19T04:02:43.205Z,18.92
2019-02-19T04:04:36.191Z,18.63
2019-02-19T04:05:36.247Z,18.73
2019-02-19T04:07:29.231Z,18.92
2019-02-19T04:08:29.284Z,18.73
2019-02-19T04:10:22.259Z,19.01
2019-02-19T04:11:22.319Z,18.92
2019-02-19T04:13:15.305Z,18.73
2019-02-19T04:14:15.356Z,19.01
2019-02-19T04:16:08.344Z,18.73
2019-02-19T04:17:08.393Z,18.44
2019-02-19T04:19:01.371Z,18.44
2019-02-19T04:20:01.424Z,18.35
2019-02-19T04:21:54.414Z,18.44
2019-02-19T04:22:54.461Z,18.06
2019-02-19T04:24:47.447Z,18.44
2019-02-19T04:25:47.500Z,18.73
2019-02-19T04:27:40.482Z,18.06
2019-02-19T04:28:40.535Z,17.87
2019-02-19T04:30:33.522Z,18.16
2019-02-19T04:31:33.569Z,17.68
2019-02-19T04:33:26.548Z,17.97
2019-02-19T04:34:26.616Z,18.26
2019-02-19T04:36:19.586Z,17.87
2019-02-19T04:37:19.636Z,17.78
2019-02-19T04:39:12.611Z,17.87
2019-02-19T04:40:12.668Z,17.68
2019-02-19T04:42:05.650Z,18.06
2019-02-19T04:43:05.706Z,18.35
2019-02-19T04:44:58.679Z,17.97
2019-02-19T04:45:58.737Z,18.26
2019-02-19T04:47:51.727Z,18.16
2019-02-19T04:48:51.783Z,18.26
2019-02-19T04:50:44.755Z,18.16
2019-02-19T04:51:44.812Z,18.26
2019-02-19T04:53:37.792Z,18.73
2019-02-19T04:54:37.841Z,18.63
2019-02-19T04:56:30.829Z,19.11
2019-02-19T04:57:30.873Z,19.59
2019-02-19T04:59:23.851Z,19.11
2019-02-19T05:00:23.912Z,19.59
2019-02-19T05:02:16.899Z,19.49
2019-02-19T05:03:16.947Z,19.39
2019-02-19T05:05:09.933Z,19.20
2019-02-19T05:06:09.984Z,19.30
2019-02-19T05:08:02.966Z,19.87
2019-02-19T05:09:03.021Z,19.30
2019-02-19T05:10:55.993Z,19.49
2019-02-19T05:11:56.048Z,19.39
2019-02-19T05:13:49.041Z,19.39
2019-02-19T05:14:49.091Z,19.49
2019-02-19T05:16:42.079Z,20.06
2019-02-19T05:17:42.129Z,19.68
2019-02-19T05:19:35.102Z,19.78
2019-02-19T05:20:35.156Z,19.78
2019-02-19T05:22:28.146Z,19.59
2019-02-19T05:23:28.190Z,19.59
2019-02-19T05:25:21.170Z,19.49
2019-02-19T05:26:21.230Z,20.06
2019-02-19T05:28:14.211Z,20.06
2019-02-19T05:29:14.261Z,20.15
2019-02-19T05:31:07.254Z,19.78
2019-02-19T05:32:07.299Z,19.96
2019-02-19T05:34:00.307Z,19.49
2019-02-19T05:35:00.333Z,19.39
2019-02-19T05:36:53.319Z,19.78
2019-02-19T05:37:53.369Z,19.68
2019-02-19T05:39:46.354Z,19.49
2019-02-19T05:40:46.403Z,19.59
2019-02-19T05:42:39.386Z,20.15
2019-02-19T05:43:39.439Z,19.49
2019-02-19T05:45:32.417Z,19.59
2019-02-19T05:46:32.474Z,19.49
2019-02-19T05:48:25.460Z,19.20
2019-02-19T05:49:25.514Z,19.49
2019-02-19T05:51:18.490Z,19.49
2019-02-19T05:52:18.546Z,19.59
2019-02-19T05:54:11.535Z,20.06
2019-02-19T05:55:11.586Z,19.68
2019-02-19T05:57:04.565Z,19.59
2019-02-19T05:58:04.617Z,19.59
2019-02-19T05:59:57.593Z,19.59
2019-02-19T06:00:57.652Z,19.30
2019-02-19T06:02:50.639Z,19.59
2019-02-19T06:03:50.685Z,19.96
2019-02-19T06:05:43.685Z,20.15
2019-02-19T06:06:43.718Z,19.87
2019-02-19T06:08:36.704Z,19.39
2019-02-19T06:09:36.771Z,19.59
2019-02-19T06:11:29.746Z,20.44
2019-02-19T06:12:29.802Z,20.06
2019-02-19T06:14:22.783Z,20.06
2019-02-19T06:15:22.832Z,19.96
2019-02-19T06:17:15.814Z,20.25
2019-02-19T06:18:15.876Z,19.87
2019-02-19T06:20:08.843Z,19.59
2019-02-19T06:21:08.897Z,19.96
2019-02-19T06:23:01.886Z,20.34
2019-02-19T06:24:01.946Z,20.34
2019-02-19T06:25:54.922Z,19.96
2019-02-19T06:26:54.962Z,20.06
2019-02-19T06:28:47.944Z,19.30
2019-02-19T06:29:47.994Z,20.06
2019-02-19T06:31:40.970Z,19.39
2019-02-19T06:32:41.027Z,19.39
2019-02-19T06:34:34.009Z,19.59
2019-02-19T06:35:34.074Z,19.59
2019-02-19T06:37:27.039Z,19.59
2019-02-19T06:38:27.089Z,19.78
2019-02-19T06:40:20.065Z,19.30
2019-02-19T06:41:20.124Z,19.30
2019-02-19T06:43:13.110Z,19.39
2019-02-19T06:44:13.158Z,19.30
2019-02-19T06:46:06.136Z,19.20
2019-02-19T06:47:07.067Z,19.78
2019-02-19T06:48:59.181Z,19.68
2019-02-19T06:49:59.228Z,19.59
2019-02-19T06:51:52.204Z,18.92
2019-02-19T06:52:52.258Z,19.30
2019-02-19T06:54:45.246Z,19.68
2019-02-19T06:55:45.292Z,19.01
2019-02-19T06:57:38.283Z,19.78
2019-02-19T06:58:38.335Z,19.49
2019-02-19T07:00:31.310Z,19.78
2019-02-19T07:01:31.363Z,19.59
2019-02-19T07:03:24.365Z,19.59
2019-02-19T07:04:24.401Z,19.20
2019-02-19T07:06:17.380Z,19.39
2019-02-19T07:07:17.453Z,19.59
2019-02-19T07:09:10.435Z,20.06
2019-02-19T07:10:10.481Z,20.06
2019-02-19T07:12:03.463Z,20.06
2019-02-19T07:13:03.522Z,20.34
2019-02-19T07:14:56.504Z,20.34
2019-02-19T07:15:56.553Z,20.34
2019-02-19T07:17:49.538Z,20.73
2019-02-19T07:18:49.591Z,20.44
2019-02-19T07:20:42.564Z,20.44
2019-02-19T07:21:42.708Z,20.63
2019-02-19T07:23:35.604Z,21.01
2019-02-19T07:24:35.650Z,21.01
2019-02-19T07:26:28.632Z,21.20
2019-02-19T07:27:28.685Z,21.48
2019-02-19T07:29:21.673Z,21.20
2019-02-19T07:30:21.716Z,21.11
2019-02-19T07:32:14.695Z,21.48
2019-02-19T07:33:14.759Z,21.67
2019-02-19T07:35:07.743Z,21.48
2019-02-19T07:36:07.782Z,21.86
2019-02-19T07:38:00.768Z,21.86
2019-02-19T07:39:00.831Z,21.67
2019-02-19T07:40:53.806Z,21.58
2019-02-19T07:41:53.863Z,21.96
2019-02-19T07:43:46.850Z,21.86
2019-02-19T07:44:46.896Z,22.63
2019-02-19T07:46:39.877Z,22.44
2019-02-19T07:47:39.933Z,22.25
2019-02-19T07:49:32.922Z,22.34
2019-02-19T07:50:32.972Z,21.96
2019-02-19T07:52:25.948Z,22.63
2019-02-19T07:53:26.005Z,22.15
2019-02-19T07:55:18.995Z,22.53
2019-02-19T07:56:19.045Z,22.44
2019-02-19T07:58:12.030Z,22.25
2019-02-19T07:59:12.084Z,22.44
2019-02-19T08:01:05.057Z,22.25
2019-02-19T08:02:05.114Z,22.34
2019-02-19T08:03:58.099Z,22.15
2019-02-19T08:04:58.154Z,22.53
2019-02-19T08:06:51.125Z,22.25
2019-02-19T08:07:51.181Z,22.53
2019-02-19T08:09:44.162Z,22.44
2019-02-19T08:10:44.216Z,22.44
2019-02-19T08:12:37.206Z,22.53
2019-02-19T08:13:37.262Z,22.81
2019-02-19T08:15:30.291Z,23.29
2019-02-19T08:16:30.299Z,22.53
2019-02-19T08:18:25.051Z,22.53
2019-02-19T08:19:23.340Z,22.72
2019-02-19T08:21:16.823Z,23.39
2019-02-19T08:22:16.885Z,23.86
2019-02-19T08:24:09.862Z,24.53
2019-02-19T08:25:09.912Z,25.48
2019-02-19T08:27:02.896Z,25.78
2019-02-19T08:28:02.947Z,28.82
2019-02-19T08:29:55.935Z,31.60
2019-02-19T08:30:55.983Z,33.12
2019-02-19T08:32:48.986Z,32.55
2019-02-19T08:33:49.041Z,32.24
2019-02-19T08:35:42.032Z,31.68
2019-02-19T08:36:42.076Z,32.34
2019-02-19T08:38:35.067Z,31.87
2019-02-19T08:39:35.115Z,31.29
2019-02-19T08:41:28.095Z,31.50
2019-02-19T08:42:28.151Z,33.03
2019-02-19T08:44:21.133Z,39.42
2019-02-19T08:45:21.187Z,39.97
2019-02-19T08:47:14.177Z,40.09
2019-02-19T08:48:14.237Z,40.56
2019-02-19T08:50:07.224Z,43.54
2019-02-19T08:51:07.278Z,49.73
2019-02-19T08:53:00.260Z,57.57
2019-02-19T08:54:00.310Z,62.02
2019-02-19T08:55:53.303Z,72.45
2019-02-19T08:56:53.349Z,66.66
2019-02-19T08:58:46.339Z,56.43
2019-02-19T08:59:46.384Z,59.51
2019-02-19T09:01:39.412Z,54.21
2019-02-19T09:02:39.429Z,51.73
2019-02-19T09:04:32.418Z,50.68
2019-02-19T09:05:32.474Z,46.68
2019-02-19T09:07:25.449Z,43.90
2019-02-19T09:08:25.505Z,44.37
2019-02-19T09:10:18.497Z,42.37
2019-02-19T09:11:18.553Z,41.04
2019-02-19T09:13:11.537Z,48.49
2019-02-19T09:14:11.602Z,47.71
2019-02-19T09:16:04.578Z,47.04
2019-02-19T09:17:04.628Z,45.89
2019-02-19T09:18:57.613Z,53.64
2019-02-19T09:19:59.527Z,55.57
2019-02-19T09:21:51.155Z,55.66
2019-02-19T09:22:51.209Z,55.76
2019-02-19T09:24:44.199Z,54.55
2019-02-19T09:25:44.248Z,58.52
2019-02-19T09:27:37.230Z,51.06
2019-02-19T09:28:37.286Z,52.80
2019-02-19T09:30:30.270Z,56.14
2019-02-19T09:31:30.326Z,56.24
2019-02-19T09:33:23.301Z,54.71
2019-02-19T09:34:23.368Z,52.11
2019-02-19T09:36:16.347Z,49.73
2019-02-19T09:37:16.399Z,51.54
2019-02-19T09:39:09.383Z,50.78
2019-02-19T09:40:09.449Z,49.16
2019-02-19T09:42:02.416Z,49.76
2019-02-19T09:43:02.472Z,51.85
2019-02-19T09:44:55.458Z,52.90
2019-02-19T09:45:55.510Z,54.90
2019-02-19T09:47:48.498Z,52.80
2019-02-19T09:48:48.548Z,55.76
2019-02-19T09:50:41.541Z,56.24
2019-02-19T09:51:41.587Z,56.52
2019-02-19T09:53:34.582Z,51.56
2019-02-19T09:54:34.637Z,55.60
2019-02-19T09:56:27.629Z,59.22
2019-02-19T09:57:27.678Z,59.60
2019-02-19T09:59:20.667Z,57.98
2019-02-19T10:00:20.716Z,60.27
2019-02-19T10:02:13.710Z,58.94
2019-02-19T10:03:13.759Z,59.12
2019-02-19T10:05:06.742Z,59.38
2019-02-19T10:06:06.793Z,59.09
2019-02-19T10:07:59.789Z,57.35
2019-02-19T10:08:59.848Z,54.49
2019-02-19T10:10:52.847Z,51.45
2019-02-19T10:11:52.885Z,52.01
2019-02-19T10:13:45.866Z,51.64
2019-02-19T10:14:45.921Z,50.97
2019-02-19T10:16:41.618Z,50.59
2019-02-19T10:17:38.968Z,51.06
2019-02-19T10:19:31.952Z,49.73
2019-02-19T10:20:32.004Z,50.01
2019-02-19T10:22:24.984Z,52.75
2019-02-19T10:23:25.041Z,54.94
2019-02-19T10:25:18.033Z,54.66
2019-02-19T10:26:18.077Z,54.37
2019-02-19T10:28:11.054Z,51.35
2019-02-19T10:29:11.114Z,55.26
2019-02-19T10:31:04.103Z,56.11
2019-02-19T10:32:05.927Z,56.04
2019-02-19T10:33:57.130Z,57.57
2019-02-19T10:34:57.187Z,61.38
2019-02-19T10:36:50.177Z,65.86
2019-02-19T10:37:51.727Z,65.67
2019-02-19T10:39:43.223Z,64.91
2019-02-19T10:40:43.272Z,66.28
2019-02-19T10:42:36.262Z,67.61
2019-02-19T10:43:36.324Z,64.09
2019-02-19T10:45:29.312Z,66.56
2019-02-19T10:46:29.361Z,64.85
2019-02-19T10:48:22.350Z,67.10
2019-02-19T10:49:22.405Z,66.24
2019-02-19T10:51:15.399Z,65.73
2019-02-19T10:52:15.450Z,63.86
2019-02-19T10:54:08.426Z,63.54
2019-02-19T10:55:08.484Z,61.86
2019-02-19T10:57:01.475Z,66.47
2019-02-19T10:58:01.529Z,66.75
2019-02-19T10:59:54.513Z,64.09
2019-02-19T11:00:54.565Z,64.56
2019-02-19T11:02:47.543Z,64.91
2019-02-19T11:03:47.600Z,67.23
2019-02-19T11:05:40.591Z,68.95
2019-02-19T11:06:40.636Z,68.47
2019-02-19T11:08:33.624Z,68.47
2019-02-19T11:09:33.683Z,69.43
2019-02-19T11:11:26.670Z,67.04
2019-02-19T11:12:26.723Z,67.99
2019-02-19T11:14:19.704Z,67.33
2019-02-19T11:15:19.766Z,68.28
2019-02-19T11:17:12.748Z,67.96
2019-02-19T11:18:12.800Z,67.33
2019-02-19T11:20:05.784Z,65.04
2019-02-19T11:21:05.836Z,66.56
2019-02-19T11:22:58.846Z,68.44
2019-02-19T11:23:58.875Z,67.10
2019-02-19T11:25:51.865Z,66.18
2019-02-19T11:26:51.916Z,66.18
2019-02-19T11:28:44.898Z,69.14
2019-02-19T11:29:44.957Z,71.04
2019-02-19T11:31:37.942Z,72.57
2019-02-19T11:32:37.993Z,69.62
2019-02-19T11:34:30.977Z,71.56
2019-02-19T11:35:31.030Z,72.00
2019-02-19T11:37:24.025Z,72.00
2019-02-19T11:38:24.066Z,76.01
2019-02-19T11:40:17.076Z,77.44
2019-02-19T11:41:17.130Z,78.23
2019-02-19T11:43:10.112Z,73.91
2019-02-19T11:44:10.170Z,75.15
2019-02-19T11:46:03.155Z,72.67
2019-02-19T11:47:03.205Z,72.48
2019-02-19T11:48:56.331Z,73.14
2019-02-19T11:49:56.245Z,73.72
2019-02-19T11:51:49.235Z,72.96
2019-02-19T11:52:49.293Z,73.62
2019-02-19T11:54:42.287Z,74.29
2019-02-19T11:55:42.349Z,74.48
2019-02-19T11:57:35.338Z,73.52
2019-02-19T11:58:35.388Z,72.57
2019-02-19T12:00:28.378Z,75.53
2019-02-19T12:01:28.429Z,73.43
2019-02-19T12:03:21.416Z,72.92
2019-02-19T12:04:21.469Z,71.87
2019-02-19T12:06:14.460Z,69.20
2019-02-19T12:07:14.526Z,71.01
2019-02-19T12:09:07.503Z,72.72
2019-02-19T12:10:07.559Z,70.63
2019-02-19T12:12:00.563Z,70.06
2019-02-19T12:13:00.598Z,70.67
2019-02-19T12:14:53.576Z,69.81
2019-02-19T12:15:53.639Z,71.04
2019-02-19T12:17:46.624Z,76.48
2019-02-19T12:18:46.732Z,72.28
2019-02-19T12:20:39.661Z,71.43
2019-02-19T12:21:39.708Z,74.96
2019-02-19T12:23:32.693Z,76.57
2019-02-19T12:24:32.750Z,76.39
2019-02-19T12:26:25.744Z,74.96
2019-02-19T12:27:25.781Z,75.72
2019-02-19T12:29:18.779Z,74.96
2019-02-19T12:30:18.828Z,71.52
2019-02-19T12:32:11.823Z,74.77
2019-02-19T12:33:11.870Z,75.72
2019-02-19T12:35:04.847Z,74.77
2019-02-19T12:36:04.905Z,74.10
2019-02-19T12:37:57.896Z,71.01
2019-02-19T12:38:57.944Z,72.92
2019-02-19T12:40:50.950Z,71.96
2019-02-19T12:41:50.986Z,71.58
2019-02-19T12:43:43.962Z,72.25
2019-02-19T12:44:44.019Z,71.30
2019-02-19T12:46:37.004Z,73.52
2019-02-19T12:47:37.058Z,74.57
2019-02-19T12:49:30.046Z,74.67
2019-02-19T12:50:30.101Z,73.62
2019-02-19T12:52:23.088Z,73.91
2019-02-19T12:53:23.154Z,74.29
2019-02-19T12:55:16.122Z,74.19
2019-02-19T12:56:16.181Z,72.67
2019-02-19T12:58:09.167Z,72.09
2019-02-19T12:59:09.208Z,73.62
2019-02-19T13:01:02.217Z,74.77
2019-02-19T13:02:02.268Z,74.10
2019-02-19T13:03:55.253Z,73.52
2019-02-19T13:04:55.313Z,72.86
2019-02-19T13:06:48.303Z,73.24
2019-02-19T13:07:48.414Z,73.14
2019-02-19T13:09:41.387Z,72.44
2019-02-19T13:10:41.408Z,71.72
2019-02-19T13:12:34.394Z,71.30
2019-02-19T13:13:34.437Z,71.11
2019-02-19T13:15:27.428Z,73.11
2019-02-19T13:16:27.480Z,71.48
2019-02-19T13:18:20.471Z,74.16
2019-02-19T13:19:20.518Z,71.87
2019-02-19T13:21:16.038Z,72.92
2019-02-19T13:22:16.082Z,72.72
2019-02-19T13:24:09.075Z,73.21
2019-02-19T13:25:09.119Z,73.68
2019-02-19T13:27:02.113Z,73.39
2019-02-19T13:28:02.162Z,74.48
2019-02-19T13:29:55.341Z,74.63
2019-02-19T13:30:55.439Z,74.77
2019-02-19T13:32:48.192Z,76.35
2019-02-19T13:33:48.239Z,76.16
2019-02-19T13:35:41.226Z,77.87
2019-02-19T13:36:41.279Z,76.92
2019-02-19T13:38:34.293Z,77.30
2019-02-19T13:39:34.344Z,77.11
2019-02-19T13:41:27.332Z,77.40
2019-02-19T13:42:27.383Z,77.97
2019-02-19T13:44:20.363Z,77.59
2019-02-19T13:45:20.420Z,77.72
2019-02-19T13:47:13.421Z,77.91
2019-02-19T13:48:13.471Z,77.59
2019-02-19T13:50:06.464Z,76.44
2019-02-19T13:51:06.522Z,76.64
2019-02-19T13:52:59.501Z,74.63
2019-02-19T13:53:59.547Z,76.73
2019-02-19T13:55:52.529Z,76.35
2019-02-19T13:56:52.596Z,76.16
2019-02-19T13:58:45.585Z,76.54
2019-02-19T13:59:45.659Z,75.87
2019-02-19T14:01:38.624Z,77.97
2019-02-19T14:02:38.675Z,75.78
2019-02-19T14:04:31.660Z,77.49
2019-02-19T14:05:31.749Z,76.25
2019-02-19T14:07:24.723Z,76.35
2019-02-19T14:08:24.777Z,76.25
2019-02-19T14:10:17.746Z,75.30
2019-02-19T14:11:17.846Z,75.87
2019-02-19T14:13:10.797Z,75.59
2019-02-19T14:14:10.831Z,74.25
2019-02-19T14:16:03.859Z,76.35
2019-02-19T14:17:03.893Z,77.01
2019-02-19T14:18:56.883Z,74.63
2019-02-19T14:19:56.930Z,75.30
2019-02-19T14:21:49.927Z,75.11
2019-02-19T14:22:49.983Z,74.82
2019-02-19T14:24:43.009Z,76.35
2019-02-19T14:25:43.038Z,76.82
2019-02-19T14:27:36.029Z,77.11
2019-02-19T14:28:36.077Z,76.73
2019-02-19T14:30:29.917Z,75.68
2019-02-19T14:31:29.972Z,74.16
2019-02-19T14:33:22.965Z,75.49
2019-02-19T14:34:23.018Z,74.44
2019-02-19T14:36:16.002Z,72.72
2019-02-19T14:37:16.063Z,75.24
2019-02-19T14:39:09.049Z,78.67
2019-02-19T14:40:10.473Z,77.82
2019-02-19T14:42:02.083Z,77.97
2019-02-19T14:43:02.128Z,76.35
2019-02-19T14:44:55.132Z,78.73
2019-02-19T14:45:55.188Z,77.11
2019-02-19T14:47:48.176Z,76.35
2019-02-19T14:48:48.225Z,77.59
2019-02-19T14:50:41.203Z,77.30
2019-02-19T14:51:41.261Z,76.73
2019-02-19T14:53:34.277Z,78.35
2019-02-19T14:54:34.325Z,78.16
2019-02-19T14:56:27.303Z,78.73
2019-02-19T14:57:27.359Z,78.35
2019-02-19T14:59:20.354Z,78.16
2019-02-19T15:00:20.407Z,77.69
2019-02-19T15:02:13.392Z,77.11
2019-02-19T15:03:13.438Z,75.68
2019-02-19T15:05:06.423Z,76.54
2019-02-19T15:06:06.482Z,76.44
2019-02-19T15:07:59.469Z,76.64
2019-02-19T15:08:59.526Z,76.73
2019-02-19T15:10:52.498Z,77.01
2019-02-19T15:11:52.561Z,75.49
2019-02-19T15:13:45.557Z,75.68
2019-02-19T15:14:45.602Z,74.92
2019-02-19T15:16:38.579Z,75.87
2019-02-19T15:17:38.642Z,75.20
2019-02-19T15:19:38.846Z,75.68
2019-02-19T15:20:31.676Z,74.06
2019-02-19T15:22:26.183Z,74.92
2019-02-19T15:23:26.235Z,74.63
2019-02-19T15:25:19.212Z,74.92
2019-02-19T15:26:19.272Z,75.30
2019-02-19T15:28:12.263Z,75.11
2019-02-19T15:29:12.314Z,75.59
2019-02-19T15:31:05.288Z,75.11
2019-02-19T15:32:06.531Z,75.59
2019-02-19T15:33:58.337Z,75.59
2019-02-19T15:34:58.396Z,77.40
2019-02-19T15:36:51.449Z,75.59
2019-02-19T15:37:51.427Z,75.59
2019-02-19T15:39:44.415Z,73.39
2019-02-19T15:40:44.461Z,74.69
2019-02-19T15:42:37.456Z,75.16
2019-02-19T15:43:37.504Z,75.07
2019-02-19T15:45:30.493Z,74.88
2019-02-19T15:46:30.547Z,74.63
2019-02-19T15:48:23.534Z,73.39
2019-02-19T15:49:23.581Z,73.68
2019-02-19T15:51:16.560Z,74.79
2019-02-19T15:52:16.627Z,73.26
2019-02-19T15:54:09.628Z,74.31
2019-02-19T15:55:09.667Z,73.83
2019-02-19T15:57:02.651Z,75.07
2019-02-19T15:58:04.720Z,75.68
2019-02-19T15:59:55.713Z,73.93
2019-02-19T16:00:57.416Z,75.55
2019-02-19T16:02:48.737Z,73.83
2019-02-19T16:03:48.790Z,73.74
2019-02-19T16:05:41.764Z,75.07
2019-02-19T16:06:41.998Z,74.02
2019-02-19T16:08:34.809Z,74.40
2019-02-19T16:09:34.858Z,75.84
2019-02-19T16:11:27.844Z,74.79
2019-02-19T16:12:27.903Z,74.50
2019-02-19T16:14:20.892Z,74.50
2019-02-19T16:15:20.976Z,74.50
2019-02-19T16:17:13.939Z,74.40
2019-02-19T16:18:13.985Z,75.93
2019-02-19T16:20:06.968Z,75.55
2019-02-19T16:21:07.020Z,75.64
2019-02-19T16:23:00.014Z,76.21
2019-02-19T16:24:00.076Z,75.45
2019-02-19T16:25:53.098Z,76.12
2019-02-19T16:26:53.106Z,76.50
2019-02-19T16:28:46.098Z,77.45
2019-02-19T16:29:46.153Z,77.07
2019-02-19T16:31:39.129Z,76.69
2019-02-19T16:32:39.186Z,76.21
2019-02-19T16:34:32.168Z,77.07
2019-02-19T16:35:32.219Z,77.93
2019-02-19T16:37:25.198Z,76.79
2019-02-19T16:38:25.254Z,77.83
2019-02-19T16:40:18.256Z,76.56
2019-02-19T16:41:18.310Z,75.45
2019-02-19T16:43:11.301Z,75.32
2019-02-19T16:44:11.360Z,75.70
2019-02-19T16:46:04.334Z,73.61
2019-02-19T16:47:04.397Z,73.03
2019-02-19T16:48:57.402Z,73.03
2019-02-19T16:50:06.873Z,73.61
2019-02-19T16:51:50.431Z,71.42
2019-02-19T16:52:50.486Z,71.13
2019-02-19T16:54:43.486Z,71.61
2019-02-19T16:55:43.537Z,70.37
2019-02-19T16:57:36.533Z,71.22
2019-02-19T16:58:36.589Z,69.79
2019-02-19T17:00:29.592Z,70.56
2019-02-19T17:01:29.635Z,68.65
2019-02-19T17:03:22.628Z,69.70
2019-02-19T17:04:22.665Z,68.84
2019-02-19T17:06:15.644Z,69.32
2019-02-19T17:07:15.724Z,69.13
2019-02-19T17:09:08.709Z,69.79
2019-02-19T17:10:08.774Z,68.65
2019-02-19T17:12:01.756Z,69.23
2019-02-19T17:13:01.804Z,68.94
2019-02-19T17:14:54.827Z,69.23
2019-02-19T17:15:54.843Z,69.32
2019-02-19T17:17:47.834Z,70.08
2019-02-19T17:18:47.874Z,69.79
2019-02-19T17:20:40.870Z,70.65
2019-02-19T17:21:40.911Z,70.37
2019-02-19T17:23:33.900Z,72.08
2019-02-19T17:24:33.950Z,70.56
2019-02-19T17:26:26.931Z,70.18
2019-02-19T17:27:26.988Z,70.37
2019-02-19T17:29:19.977Z,72.17
2019-02-19T17:30:20.026Z,72.42
2019-02-19T17:32:13.017Z,72.62
2019-02-19T17:33:13.063Z,73.00
2019-02-19T17:35:06.056Z,75.19
2019-02-19T17:36:06.102Z,75.19
2019-02-19T17:37:59.087Z,76.04
2019-02-19T17:38:59.135Z,76.33
2019-02-19T17:40:52.127Z,76.81
2019-02-19T17:41:52.191Z,77.76
2019-02-19T17:43:45.161Z,77.76
2019-02-19T17:44:45.204Z,77.95
2019-02-19T17:46:38.204Z,77.47
2019-02-19T17:47:38.244Z,77.66
2019-02-19T17:49:31.225Z,78.61
2019-02-19T17:50:38.110Z,78.23
2019-02-19T17:52:24.255Z,77.95
2019-02-19T17:53:24.317Z,79.19
2019-02-19T17:55:17.306Z,78.04
2019-02-19T17:56:17.357Z,77.95
2019-02-19T17:58:10.333Z,78.38
2019-02-19T17:59:10.397Z,78.00
2019-02-19T18:01:03.379Z,77.91
2019-02-19T18:02:03.428Z,77.81
2019-02-19T18:03:56.416Z,77.62
2019-02-19T18:04:56.463Z,78.19
2019-02-19T18:06:49.439Z,77.53
2019-02-19T18:07:49.502Z,76.96
2019-02-19T18:09:42.497Z,76.96
2019-02-19T18:10:42.541Z,76.76
2019-02-19T18:12:35.519Z,75.72
2019-02-19T18:13:35.577Z,76.67
2019-02-19T18:15:28.569Z,76.01
2019-02-19T18:16:28.622Z,75.72
2019-02-19T18:18:21.586Z,74.48
2019-02-19T18:19:21.642Z,74.96
2019-02-19T18:21:14.628Z,74.77
2019-02-19T18:22:14.682Z,75.43
2019-02-19T18:24:07.666Z,74.10
2019-02-19T18:25:07.714Z,73.63
2019-02-19T18:27:01.210Z,72.92
2019-02-19T18:28:01.261Z,72.83
2019-02-19T18:29:54.248Z,72.92
2019-02-19T18:30:54.295Z,72.83
2019-02-19T18:32:47.275Z,72.83
2019-02-19T18:33:47.328Z,72.35